sensor_id;sensor_type;location;lat;lon;timestamp;temperature;humidity
41664;DHT22;27353;50.906;7.248;2024-03-02T00:01:10;6.80;99.90
41664;DHT22;27353;50.906;7.248;2024-03-02T00:03:37;6.80;99.90
41664;DHT22;27353;50.906;7.248;2024-03-02T00:06:03;6.80;99.90
41664;DHT22;27353;50.906;7.248;2024-03-02T00:08:29;6.80;99.90
41664;DHT22;27353;50.906;7.248;2024-03-02T00:10:59;6.80;99.90
41664;DHT22;27353;50.906;7.248;2024-03-02T00:13:25;6.90;99.90
41664;DHT22;27353;50.906;7.248;2024-03-02T00:15:52;6.90;99.90
41664;DHT22;27353;50.906;7.248;2024-03-02T00:18:41;6.90;99.90
41664;DHT22;27353;50.906;7.248;2024-03-02T00:21:07;6.90;99.90
41664;DHT22;27353;50.906;7.248;2024-03-02T00:23:35;6.90;99.90
41664;DHT22;27353;50.906;7.248;2024-03-02T00:26:01;7.00;99.90
41664;DHT22;27353;50.906;7.248;2024-03-02T00:28:27;7.00;99.90
41664;DHT22;27353;50.906;7.248;2024-03-02T00:33:26;7.00;99.90
41664;DHT22;27353;50.906;7.248;2024-03-02T00:35:52;7.00;99.90
41664;DHT22;27353;50.906;7.248;2024-03-02T00:38:18;7.00;99.90
41664;DHT22;27353;50.906;7.248;2024-03-02T00:40:45;7.00;99.90
41664;DHT22;27353;50.906;7.248;2024-03-02T00:46:04;7.10;99.90
41664;DHT22;27353;50.906;7.248;2024-03-02T00:48:30;7.10;99.90
41664;DHT22;27353;50.906;7.248;2024-03-02T00:50:57;7.10;99.90
41664;DHT22;27353;50.906;7.248;2024-03-02T00:53:24;7.20;99.90
41664;DHT22;27353;50.906;7.248;2024-03-02T00:55:51;7.20;99.90
41664;DHT22;27353;50.906;7.248;2024-03-02T00:58:17;7.30;99.90
41664;DHT22;27353;50.906;7.248;2024-03-02T01:00:42;7.30;99.90
41664;DHT22;27353;50.906;7.248;2024-03-02T01:03:08;7.30;99.90
41664;DHT22;27353;50.906;7.248;2024-03-02T01:05:36;7.30;99.90
41664;DHT22;27353;50.906;7.248;2024-03-02T01:08:02;7.30;99.90
41664;DHT22;27353;50.906;7.248;2024-03-02T01:10:27;7.20;99.90
41664;DHT22;27353;50.906;7.248;2024-03-02T01:12:53;7.20;99.90
41664;DHT22;27353;50.906;7.248;2024-03-02T01:15:18;7.30;99.90
41664;DHT22;27353;50.906;7.248;2024-03-02T01:17:45;7.30;99.90
41664;DHT22;27353;50.906;7.248;2024-03-02T01:20:11;7.30;99.90
41664;DHT22;27353;50.906;7.248;2024-03-02T01:22:36;7.30;99.90
41664;DHT22;27353;50.906;7.248;2024-03-02T01:25:03;7.30;99.90
41664;DHT22;27353;50.906;7.248;2024-03-02T01:27:28;7.30;99.90
41664;DHT22;27353;50.906;7.248;2024-03-02T01:29:54;7.30;99.90
41664;DHT22;27353;50.906;7.248;2024-03-02T01:32:20;7.30;99.90
41664;DHT22;27353;50.906;7.248;2024-03-02T01:34:45;7.30;99.90
41664;DHT22;27353;50.906;7.248;2024-03-02T01:37:11;7.20;99.90
41664;DHT22;27353;50.906;7.248;2024-03-02T01:39:36;7.20;99.90
41664;DHT22;27353;50.906;7.248;2024-03-02T01:42:02;7.10;99.90
41664;DHT22;27353;50.906;7.248;2024-03-02T01:44:28;7.10;99.90
41664;DHT22;27353;50.906;7.248;2024-03-02T01:46:53;7.10;99.90
41664;DHT22;27353;50.906;7.248;2024-03-02T01:49:19;7.10;99.90
41664;DHT22;27353;50.906;7.248;2024-03-02T01:51:45;7.10;99.90
41664;DHT22;27353;50.906;7.248;2024-03-02T01:54:10;7.20;99.90
41664;DHT22;27353;50.906;7.248;2024-03-02T01:56:36;7.20;99.90
41664;DHT22;27353;50.906;7.248;2024-03-02T01:59:01;7.20;99.90
41664;DHT22;27353;50.906;7.248;2024-03-02T02:01:27;7.20;99.90
41664;DHT22;27353;50.906;7.248;2024-03-02T02:03:53;7.20;99.90
41664;DHT22;27353;50.906;7.248;2024-03-02T02:06:19;7.20;99.90
41664;DHT22;27353;50.906;7.248;2024-03-02T02:08:44;7.20;99.90
41664;DHT22;27353;50.906;7.248;2024-03-02T02:11:10;7.20;99.90
41664;DHT22;27353;50.906;7.248;2024-03-02T02:13:36;7.20;99.90
41664;DHT22;27353;50.906;7.248;2024-03-02T02:16:06;7.20;99.90
41664;DHT22;27353;50.906;7.248;2024-03-02T02:18:32;7.10;99.90
41664;DHT22;27353;50.906;7.248;2024-03-02T02:20:58;7.10;99.90
41664;DHT22;27353;50.906;7.248;2024-03-02T02:23:23;7.00;99.90
41664;DHT22;27353;50.906;7.248;2024-03-02T02:25:49;7.00;99.90
41664;DHT22;27353;50.906;7.248;2024-03-02T02:28:14;7.00;99.90
41664;DHT22;27353;50.906;7.248;2024-03-02T02:30:40;6.90;99.90
41664;DHT22;27353;50.906;7.248;2024-03-02T02:33:05;6.90;99.90
41664;DHT22;27353;50.906;7.248;2024-03-02T02:35:31;7.00;99.90
41664;DHT22;27353;50.906;7.248;2024-03-02T02:37:57;7.00;99.90
41664;DHT22;27353;50.906;7.248;2024-03-02T02:40:24;7.00;99.90
41664;DHT22;27353;50.906;7.248;2024-03-02T02:42:49;7.00;99.90
41664;DHT22;27353;50.906;7.248;2024-03-02T02:45:17;6.90;99.90
41664;DHT22;27353;50.906;7.248;2024-03-02T02:47:44;6.80;99.90
41664;DHT22;27353;50.906;7.248;2024-03-02T02:50:11;6.80;99.90
41664;DHT22;27353;50.906;7.248;2024-03-02T02:52:39;6.80;99.90
41664;DHT22;27353;50.906;7.248;2024-03-02T02:55:06;6.70;99.90
41664;DHT22;27353;50.906;7.248;2024-03-02T02:57:33;6.70;99.90
41664;DHT22;27353;50.906;7.248;2024-03-02T03:00:13;6.60;99.90
41664;DHT22;27353;50.906;7.248;2024-03-02T03:02:45;6.60;99.90
41664;DHT22;27353;50.906;7.248;2024-03-02T03:05:13;6.60;99.90
41664;DHT22;27353;50.906;7.248;2024-03-02T03:07:40;6.60;99.90
41664;DHT22;27353;50.906;7.248;2024-03-02T03:10:06;6.60;99.90
41664;DHT22;27353;50.906;7.248;2024-03-02T03:12:33;6.60;99.90
41664;DHT22;27353;50.906;7.248;2024-03-02T03:14:59;6.60;99.90
41664;DHT22;27353;50.906;7.248;2024-03-02T03:17:25;6.60;99.90
41664;DHT22;27353;50.906;7.248;2024-03-02T03:19:51;6.60;99.90
41664;DHT22;27353;50.906;7.248;2024-03-02T03:22:16;6.50;99.90
41664;DHT22;27353;50.906;7.248;2024-03-02T03:24:42;6.50;99.90
41664;DHT22;27353;50.906;7.248;2024-03-02T03:27:08;6.60;99.90
41664;DHT22;27353;50.906;7.248;2024-03-02T03:29:36;6.60;99.90
41664;DHT22;27353;50.906;7.248;2024-03-02T03:32:02;6.60;99.90
41664;DHT22;27353;50.906;7.248;2024-03-02T03:34:27;6.80;99.90
41664;DHT22;27353;50.906;7.248;2024-03-02T03:36:54;6.80;99.90
41664;DHT22;27353;50.906;7.248;2024-03-02T03:39:20;6.90;99.90
41664;DHT22;27353;50.906;7.248;2024-03-02T03:41:45;7.00;99.90
41664;DHT22;27353;50.906;7.248;2024-03-02T03:44:11;7.00;99.90
41664;DHT22;27353;50.906;7.248;2024-03-02T03:46:36;7.00;99.90
41664;DHT22;27353;50.906;7.248;2024-03-02T03:49:03;6.90;99.90
41664;DHT22;27353;50.906;7.248;2024-03-02T03:51:29;6.90;99.90
41664;DHT22;27353;50.906;7.248;2024-03-02T03:53:55;6.90;99.90
41664;DHT22;27353;50.906;7.248;2024-03-02T03:56:21;6.90;99.90
41664;DHT22;27353;50.906;7.248;2024-03-02T03:58:47;6.90;99.90
41664;DHT22;27353;50.906;7.248;2024-03-02T04:01:12;7.00;99.90
41664;DHT22;27353;50.906;7.248;2024-03-02T04:03:38;7.00;99.90
41664;DHT22;27353;50.906;7.248;2024-03-02T04:06:04;7.10;99.90
41664;DHT22;27353;50.906;7.248;2024-03-02T04:08:29;7.00;99.90
41664;DHT22;27353;50.906;7.248;2024-03-02T04:10:55;7.10;99.90
41664;DHT22;27353;50.906;7.248;2024-03-02T04:13:21;7.10;99.90
41664;DHT22;27353;50.906;7.248;2024-03-02T04:15:46;7.10;99.90
41664;DHT22;27353;50.906;7.248;2024-03-02T04:18:12;7.10;99.90
41664;DHT22;27353;50.906;7.248;2024-03-02T04:20:37;7.10;99.90
41664;DHT22;27353;50.906;7.248;2024-03-02T04:23:03;7.10;99.90
41664;DHT22;27353;50.906;7.248;2024-03-02T04:25:29;7.00;99.90
41664;DHT22;27353;50.906;7.248;2024-03-02T04:27:54;7.00;99.90
41664;DHT22;27353;50.906;7.248;2024-03-02T04:30:20;6.90;99.90
41664;DHT22;27353;50.906;7.248;2024-03-02T04:32:45;6.90;99.90
41664;DHT22;27353;50.906;7.248;2024-03-02T04:35:12;6.90;99.90
41664;DHT22;27353;50.906;7.248;2024-03-02T04:37:40;6.80;99.90
41664;DHT22;27353;50.906;7.248;2024-03-02T04:40:06;6.80;99.90
41664;DHT22;27353;50.906;7.248;2024-03-02T04:42:33;6.70;99.90
41664;DHT22;27353;50.906;7.248;2024-03-02T04:44:59;6.80;99.90
41664;DHT22;27353;50.906;7.248;2024-03-02T04:47:24;6.70;99.90
41664;DHT22;27353;50.906;7.248;2024-03-02T04:49:50;6.70;99.90
41664;DHT22;27353;50.906;7.248;2024-03-02T04:52:16;6.70;99.90
41664;DHT22;27353;50.906;7.248;2024-03-02T04:54:41;6.70;99.90
41664;DHT22;27353;50.906;7.248;2024-03-02T04:57:26;6.60;99.90
41664;DHT22;27353;50.906;7.248;2024-03-02T04:59:51;6.60;99.90
41664;DHT22;27353;50.906;7.248;2024-03-02T05:02:17;6.60;99.90
41664;DHT22;27353;50.906;7.248;2024-03-02T05:04:42;6.60;99.90
41664;DHT22;27353;50.906;7.248;2024-03-02T05:07:08;6.60;99.90
41664;DHT22;27353;50.906;7.248;2024-03-02T05:09:33;6.60;99.90
41664;DHT22;27353;50.906;7.248;2024-03-02T05:11:58;6.60;99.90
41664;DHT22;27353;50.906;7.248;2024-03-02T05:14:43;6.60;99.90
41664;DHT22;27353;50.906;7.248;2024-03-02T05:17:08;6.60;99.90
41664;DHT22;27353;50.906;7.248;2024-03-02T05:19:34;6.50;99.90
41664;DHT22;27353;50.906;7.248;2024-03-02T05:21:59;6.50;99.90
41664;DHT22;27353;50.906;7.248;2024-03-02T05:24:25;6.40;99.90
41664;DHT22;27353;50.906;7.248;2024-03-02T05:26:53;6.50;99.90
41664;DHT22;27353;50.906;7.248;2024-03-02T05:29:18;6.40;99.90
41664;DHT22;27353;50.906;7.248;2024-03-02T05:31:44;6.40;99.90
41664;DHT22;27353;50.906;7.248;2024-03-02T05:34:09;6.40;99.90
41664;DHT22;27353;50.906;7.248;2024-03-02T05:36:35;6.30;99.90
41664;DHT22;27353;50.906;7.248;2024-03-02T05:39:01;6.30;99.90
41664;DHT22;27353;50.906;7.248;2024-03-02T05:41:27;6.30;99.90
41664;DHT22;27353;50.906;7.248;2024-03-02T05:43:53;6.20;99.90
41664;DHT22;27353;50.906;7.248;2024-03-02T05:46:18;6.30;99.90
41664;DHT22;27353;50.906;7.248;2024-03-02T05:48:44;6.30;99.90
41664;DHT22;27353;50.906;7.248;2024-03-02T05:51:09;6.30;99.90
41664;DHT22;27353;50.906;7.248;2024-03-02T05:53:35;6.30;99.90
41664;DHT22;27353;50.906;7.248;2024-03-02T05:56:04;6.30;99.90
41664;DHT22;27353;50.906;7.248;2024-03-02T05:58:30;6.30;99.90
41664;DHT22;27353;50.906;7.248;2024-03-02T06:01:14;6.30;99.90
41664;DHT22;27353;50.906;7.248;2024-03-02T06:03:39;6.30;99.90
41664;DHT22;27353;50.906;7.248;2024-03-02T06:06:05;6.30;99.90
41664;DHT22;27353;50.906;7.248;2024-03-02T06:08:31;6.40;99.90
41664;DHT22;27353;50.906;7.248;2024-03-02T06:10:56;6.40;99.90
41664;DHT22;27353;50.906;7.248;2024-03-02T06:13:22;6.40;99.90
41664;DHT22;27353;50.906;7.248;2024-03-02T06:15:48;6.40;99.90
41664;DHT22;27353;50.906;7.248;2024-03-02T06:18:14;6.40;99.90
41664;DHT22;27353;50.906;7.248;2024-03-02T06:20:39;6.40;99.90
41664;DHT22;27353;50.906;7.248;2024-03-02T06:23:05;6.40;99.90
41664;DHT22;27353;50.906;7.248;2024-03-02T06:25:30;6.40;99.90
41664;DHT22;27353;50.906;7.248;2024-03-02T06:27:56;6.40;99.90
41664;DHT22;27353;50.906;7.248;2024-03-02T06:30:22;6.40;99.90
41664;DHT22;27353;50.906;7.248;2024-03-02T06:32:47;6.40;99.90
41664;DHT22;27353;50.906;7.248;2024-03-02T06:35:13;6.40;99.90
41664;DHT22;27353;50.906;7.248;2024-03-02T06:37:38;6.40;99.90
41664;DHT22;27353;50.906;7.248;2024-03-02T06:40:08;6.50;99.90
41664;DHT22;27353;50.906;7.248;2024-03-02T06:42:34;6.50;99.90
41664;DHT22;27353;50.906;7.248;2024-03-02T06:45:00;6.50;99.90
41664;DHT22;27353;50.906;7.248;2024-03-02T06:47:25;6.50;99.90
41664;DHT22;27353;50.906;7.248;2024-03-02T06:49:51;6.60;99.90
41664;DHT22;27353;50.906;7.248;2024-03-02T06:52:17;6.60;99.90
41664;DHT22;27353;50.906;7.248;2024-03-02T06:54:42;6.70;99.90
41664;DHT22;27353;50.906;7.248;2024-03-02T06:57:08;6.70;99.90
41664;DHT22;27353;50.906;7.248;2024-03-02T06:59:33;6.70;99.90
41664;DHT22;27353;50.906;7.248;2024-03-02T07:01:59;6.80;99.90
41664;DHT22;27353;50.906;7.248;2024-03-02T07:04:25;6.80;99.90
41664;DHT22;27353;50.906;7.248;2024-03-02T07:06:50;6.80;99.90
41664;DHT22;27353;50.906;7.248;2024-03-02T07:09:16;6.90;99.90
41664;DHT22;27353;50.906;7.248;2024-03-02T07:11:42;6.90;99.90
41664;DHT22;27353;50.906;7.248;2024-03-02T07:14:08;7.00;99.90
41664;DHT22;27353;50.906;7.248;2024-03-02T07:16:33;7.10;99.90
41664;DHT22;27353;50.906;7.248;2024-03-02T07:19:00;7.10;99.90
41664;DHT22;27353;50.906;7.248;2024-03-02T07:21:27;7.20;99.90
41664;DHT22;27353;50.906;7.248;2024-03-02T07:23:53;7.10;99.90
41664;DHT22;27353;50.906;7.248;2024-03-02T07:26:18;7.10;99.90
41664;DHT22;27353;50.906;7.248;2024-03-02T07:28:46;7.10;99.90
41664;DHT22;27353;50.906;7.248;2024-03-02T07:31:13;7.10;99.90
41664;DHT22;27353;50.906;7.248;2024-03-02T07:33:38;7.10;99.90
41664;DHT22;27353;50.906;7.248;2024-03-02T07:36:04;7.20;99.90
41664;DHT22;27353;50.906;7.248;2024-03-02T07:38:30;7.20;99.90
41664;DHT22;27353;50.906;7.248;2024-03-02T07:40:56;7.30;99.90
41664;DHT22;27353;50.906;7.248;2024-03-02T07:43:22;7.40;99.90
41664;DHT22;27353;50.906;7.248;2024-03-02T07:45:48;7.50;99.90
41664;DHT22;27353;50.906;7.248;2024-03-02T07:48:14;7.60;99.90
41664;DHT22;27353;50.906;7.248;2024-03-02T07:50:40;7.80;99.90
41664;DHT22;27353;50.906;7.248;2024-03-02T07:53:06;7.90;99.90
41664;DHT22;27353;50.906;7.248;2024-03-02T07:55:33;8.10;99.90
41664;DHT22;27353;50.906;7.248;2024-03-02T07:57:58;8.20;99.90
41664;DHT22;27353;50.906;7.248;2024-03-02T08:00:25;8.30;99.90
41664;DHT22;27353;50.906;7.248;2024-03-02T08:02:51;8.30;99.90
41664;DHT22;27353;50.906;7.248;2024-03-02T08:05:17;8.40;99.90
41664;DHT22;27353;50.906;7.248;2024-03-02T08:07:44;8.50;99.90
41664;DHT22;27353;50.906;7.248;2024-03-02T08:10:10;8.70;99.90
41664;DHT22;27353;50.906;7.248;2024-03-02T08:12:36;8.80;99.90
41664;DHT22;27353;50.906;7.248;2024-03-02T08:15:02;8.90;99.90
41664;DHT22;27353;50.906;7.248;2024-03-02T08:17:27;9.20;99.90
41664;DHT22;27353;50.906;7.248;2024-03-02T08:19:53;10.00;99.90
41664;DHT22;27353;50.906;7.248;2024-03-02T08:22:19;10.50;99.90
41664;DHT22;27353;50.906;7.248;2024-03-02T08:24:45;11.70;99.90
41664;DHT22;27353;50.906;7.248;2024-03-02T08:27:10;13.00;99.90
41664;DHT22;27353;50.906;7.248;2024-03-02T08:29:36;14.20;99.90
41664;DHT22;27353;50.906;7.248;2024-03-02T08:32:01;14.90;99.90
41664;DHT22;27353;50.906;7.248;2024-03-02T08:34:27;15.20;99.90
41664;DHT22;27353;50.906;7.248;2024-03-02T08:36:53;15.20;99.90
41664;DHT22;27353;50.906;7.248;2024-03-02T08:39:19;15.40;99.90
41664;DHT22;27353;50.906;7.248;2024-03-02T08:41:45;15.60;99.90
41664;DHT22;27353;50.906;7.248;2024-03-02T08:44:11;16.30;99.90
41664;DHT22;27353;50.906;7.248;2024-03-02T08:46:37;16.40;99.90
41664;DHT22;27353;50.906;7.248;2024-03-02T08:49:04;16.30;99.90
41664;DHT22;27353;50.906;7.248;2024-03-02T08:51:29;16.30;99.90
41664;DHT22;27353;50.906;7.248;2024-03-02T08:53:56;15.60;99.90
41664;DHT22;27353;50.906;7.248;2024-03-02T08:56:22;15.50;99.90
41664;DHT22;27353;50.906;7.248;2024-03-02T08:58:52;15.50;99.90
41664;DHT22;27353;50.906;7.248;2024-03-02T09:01:18;15.40;99.90
41664;DHT22;27353;50.906;7.248;2024-03-02T09:03:45;16.60;99.90
41664;DHT22;27353;50.906;7.248;2024-03-02T09:06:11;17.10;99.90
41664;DHT22;27353;50.906;7.248;2024-03-02T09:08:37;17.90;99.90
41664;DHT22;27353;50.906;7.248;2024-03-02T09:11:04;18.80;99.90
41664;DHT22;27353;50.906;7.248;2024-03-02T09:13:30;19.10;99.90
41664;DHT22;27353;50.906;7.248;2024-03-02T09:15:55;18.00;99.90
41664;DHT22;27353;50.906;7.248;2024-03-02T09:18:21;17.30;99.90
41664;DHT22;27353;50.906;7.248;2024-03-02T09:20:46;16.20;99.90
41664;DHT22;27353;50.906;7.248;2024-03-02T09:23:12;15.50;99.90
41664;DHT22;27353;50.906;7.248;2024-03-02T09:25:38;14.30;99.90
41664;DHT22;27353;50.906;7.248;2024-03-02T09:28:03;13.70;99.90
41664;DHT22;27353;50.906;7.248;2024-03-02T09:30:29;13.40;99.90
41664;DHT22;27353;50.906;7.248;2024-03-02T09:32:54;14.70;99.90
41664;DHT22;27353;50.906;7.248;2024-03-02T09:35:20;16.40;99.90
41664;DHT22;27353;50.906;7.248;2024-03-02T09:37:45;16.70;99.90
41664;DHT22;27353;50.906;7.248;2024-03-02T09:40:13;17.00;99.90
41664;DHT22;27353;50.906;7.248;2024-03-02T09:42:39;15.90;99.90
41664;DHT22;27353;50.906;7.248;2024-03-02T09:45:06;16.10;99.90
41664;DHT22;27353;50.906;7.248;2024-03-02T09:47:32;16.30;99.90
41664;DHT22;27353;50.906;7.248;2024-03-02T09:49:57;15.70;99.90
41664;DHT22;27353;50.906;7.248;2024-03-02T09:52:23;16.10;99.90
41664;DHT22;27353;50.906;7.248;2024-03-02T09:54:49;16.80;99.90
41664;DHT22;27353;50.906;7.248;2024-03-02T09:57:15;16.30;99.90
41664;DHT22;27353;50.906;7.248;2024-03-02T09:59:41;16.50;99.90
41664;DHT22;27353;50.906;7.248;2024-03-02T10:02:06;16.90;99.90
41664;DHT22;27353;50.906;7.248;2024-03-02T10:04:33;17.80;99.90
41664;DHT22;27353;50.906;7.248;2024-03-02T10:07:14;17.80;99.90
41664;DHT22;27353;50.906;7.248;2024-03-02T10:09:41;16.90;99.90
41664;DHT22;27353;50.906;7.248;2024-03-02T10:12:09;17.50;99.90
41664;DHT22;27353;50.906;7.248;2024-03-02T10:14:35;18.30;99.90
41664;DHT22;27353;50.906;7.248;2024-03-02T10:19:29;17.70;99.90
41664;DHT22;27353;50.906;7.248;2024-03-02T10:22:00;19.00;99.90
41664;DHT22;27353;50.906;7.248;2024-03-02T10:24:28;19.90;98.40
41664;DHT22;27353;50.906;7.248;2024-03-02T10:26:59;19.70;98.30
41664;DHT22;27353;50.906;7.248;2024-03-02T10:29:25;19.30;98.20
41664;DHT22;27353;50.906;7.248;2024-03-02T10:31:54;20.10;97.60
41664;DHT22;27353;50.906;7.248;2024-03-02T10:34:21;19.90;97.50
41664;DHT22;27353;50.906;7.248;2024-03-02T10:36:47;21.20;96.60
41664;DHT22;27353;50.906;7.248;2024-03-02T10:39:14;21.90;95.10
41664;DHT22;27353;50.906;7.248;2024-03-02T10:41:40;21.20;95.40
41664;DHT22;27353;50.906;7.248;2024-03-02T10:44:07;21.80;94.80
41664;DHT22;27353;50.906;7.248;2024-03-02T10:46:35;21.40;94.10
41664;DHT22;27353;50.906;7.248;2024-03-02T10:49:02;21.50;94.10
41664;DHT22;27353;50.906;7.248;2024-03-02T10:51:30;21.60;93.10
41664;DHT22;27353;50.906;7.248;2024-03-02T10:54:02;20.20;94.50
41664;DHT22;27353;50.906;7.248;2024-03-02T10:56:30;19.90;95.70
41664;DHT22;27353;50.906;7.248;2024-03-02T11:01:43;21.90;93.30
41664;DHT22;27353;50.906;7.248;2024-03-02T11:04:11;21.10;93.20
41664;DHT22;27353;50.906;7.248;2024-03-02T11:06:38;20.60;94.50
41664;DHT22;27353;50.906;7.248;2024-03-02T11:09:07;21.00;93.90
41664;DHT22;27353;50.906;7.248;2024-03-02T11:11:42;21.50;92.90
41664;DHT22;27353;50.906;7.248;2024-03-02T11:14:13;21.00;93.70
41664;DHT22;27353;50.906;7.248;2024-03-02T11:16:39;20.10;94.30
41664;DHT22;27353;50.906;7.248;2024-03-02T11:19:09;20.20;94.10
41664;DHT22;27353;50.906;7.248;2024-03-02T11:21:35;19.00;95.00
41664;DHT22;27353;50.906;7.248;2024-03-02T11:24:28;19.50;94.90
41664;DHT22;27353;50.906;7.248;2024-03-02T11:26:58;18.80;95.40
41664;DHT22;27353;50.906;7.248;2024-03-02T11:32:02;20.60;94.40
41664;DHT22;27353;50.906;7.248;2024-03-02T11:34:32;21.00;93.80
41664;DHT22;27353;50.906;7.248;2024-03-02T11:36:59;21.50;93.30
41664;DHT22;27353;50.906;7.248;2024-03-02T11:39:27;20.80;93.00
41664;DHT22;27353;50.906;7.248;2024-03-02T11:41:52;20.00;94.30
41664;DHT22;27353;50.906;7.248;2024-03-02T11:44:18;18.60;95.30
41664;DHT22;27353;50.906;7.248;2024-03-02T11:46:53;18.00;96.30
41664;DHT22;27353;50.906;7.248;2024-03-02T11:49:39;17.10;97.80
41664;DHT22;27353;50.906;7.248;2024-03-02T11:52:06;16.40;98.40
41664;DHT22;27353;50.906;7.248;2024-03-02T11:54:36;16.10;99.30
41664;DHT22;27353;50.906;7.248;2024-03-02T11:57:05;15.80;99.90
41664;DHT22;27353;50.906;7.248;2024-03-02T11:59:30;15.20;99.80
41664;DHT22;27353;50.906;7.248;2024-03-02T12:01:57;15.30;99.90
41664;DHT22;27353;50.906;7.248;2024-03-02T12:04:23;16.10;99.70
41664;DHT22;27353;50.906;7.248;2024-03-02T12:06:56;16.50;99.20
41664;DHT22;27353;50.906;7.248;2024-03-02T12:09:25;17.00;98.60
41664;DHT22;27353;50.906;7.248;2024-03-02T12:12:02;17.50;98.60
41664;DHT22;27353;50.906;7.248;2024-03-02T12:14:28;18.40;97.00
41664;DHT22;27353;50.906;7.248;2024-03-02T12:16:54;19.60;95.90
41664;DHT22;27353;50.906;7.248;2024-03-02T12:19:21;19.70;95.40
41664;DHT22;27353;50.906;7.248;2024-03-02T12:21:47;19.10;95.60
41664;DHT22;27353;50.906;7.248;2024-03-02T12:24:12;18.20;96.90
41664;DHT22;27353;50.906;7.248;2024-03-02T12:26:38;17.70;97.30
41664;DHT22;27353;50.906;7.248;2024-03-02T12:29:04;17.50;98.00
41664;DHT22;27353;50.906;7.248;2024-03-02T12:31:30;17.40;97.80
41664;DHT22;27353;50.906;7.248;2024-03-02T12:33:56;17.50;97.90
41664;DHT22;27353;50.906;7.248;2024-03-02T12:36:22;18.20;97.10
41664;DHT22;27353;50.906;7.248;2024-03-02T12:38:47;18.60;96.90
41664;DHT22;27353;50.906;7.248;2024-03-02T12:41:16;18.80;96.60
41664;DHT22;27353;50.906;7.248;2024-03-02T12:43:42;18.80;96.20
41664;DHT22;27353;50.906;7.248;2024-03-02T12:46:07;18.00;97.60
41664;DHT22;27353;50.906;7.248;2024-03-02T12:48:34;18.10;97.50
41664;DHT22;27353;50.906;7.248;2024-03-02T12:51:00;17.90;97.90
41664;DHT22;27353;50.906;7.248;2024-03-02T12:53:26;17.60;97.20
41664;DHT22;27353;50.906;7.248;2024-03-02T12:55:52;17.80;97.40
41664;DHT22;27353;50.906;7.248;2024-03-02T12:58:20;17.80;97.20
41664;DHT22;27353;50.906;7.248;2024-03-02T13:00:48;17.10;97.40
41664;DHT22;27353;50.906;7.248;2024-03-02T13:03:14;17.30;97.40
41664;DHT22;27353;50.906;7.248;2024-03-02T13:05:48;17.60;97.40
41664;DHT22;27353;50.906;7.248;2024-03-02T13:08:14;17.70;98.40
41664;DHT22;27353;50.906;7.248;2024-03-02T13:10:40;17.80;97.90
41664;DHT22;27353;50.906;7.248;2024-03-02T13:13:06;18.10;97.30
41664;DHT22;27353;50.906;7.248;2024-03-02T13:15:33;18.10;97.00
41664;DHT22;27353;50.906;7.248;2024-03-02T13:17:59;18.30;96.30
41664;DHT22;27353;50.906;7.248;2024-03-02T13:20:32;18.30;96.70
41664;DHT22;27353;50.906;7.248;2024-03-02T13:22:58;19.20;96.40
41664;DHT22;27353;50.906;7.248;2024-03-02T13:25:23;19.50;94.60
41664;DHT22;27353;50.906;7.248;2024-03-02T13:27:49;19.00;96.00
41664;DHT22;27353;50.906;7.248;2024-03-02T13:30:15;18.80;96.30
41664;DHT22;27353;50.906;7.248;2024-03-02T13:32:40;17.70;96.90
41664;DHT22;27353;50.906;7.248;2024-03-02T13:35:06;16.40;98.50
41664;DHT22;27353;50.906;7.248;2024-03-02T13:37:32;15.70;99.40
41664;DHT22;27353;50.906;7.248;2024-03-02T13:39:57;15.70;99.90
41664;DHT22;27353;50.906;7.248;2024-03-02T13:42:23;15.50;99.80
41664;DHT22;27353;50.906;7.248;2024-03-02T13:44:49;15.10;99.90
41664;DHT22;27353;50.906;7.248;2024-03-02T13:47:16;14.80;99.90
41664;DHT22;27353;50.906;7.248;2024-03-02T13:49:42;14.50;99.90
41664;DHT22;27353;50.906;7.248;2024-03-02T13:52:10;14.50;99.90
41664;DHT22;27353;50.906;7.248;2024-03-02T13:54:42;14.50;99.90
41664;DHT22;27353;50.906;7.248;2024-03-02T13:57:08;14.40;99.90
41664;DHT22;27353;50.906;7.248;2024-03-02T13:59:34;14.40;99.90
41664;DHT22;27353;50.906;7.248;2024-03-02T14:02:03;14.30;99.90
41664;DHT22;27353;50.906;7.248;2024-03-02T14:04:33;14.30;99.90
41664;DHT22;27353;50.906;7.248;2024-03-02T14:06:59;14.40;99.90
41664;DHT22;27353;50.906;7.248;2024-03-02T14:09:25;14.30;99.90
41664;DHT22;27353;50.906;7.248;2024-03-02T14:11:51;14.60;99.90
41664;DHT22;27353;50.906;7.248;2024-03-02T14:14:17;14.40;99.90
41664;DHT22;27353;50.906;7.248;2024-03-02T14:16:43;14.60;99.90
41664;DHT22;27353;50.906;7.248;2024-03-02T14:19:09;14.50;99.90
41664;DHT22;27353;50.906;7.248;2024-03-02T14:21:35;14.20;99.90
41664;DHT22;27353;50.906;7.248;2024-03-02T14:24:01;14.40;99.90
41664;DHT22;27353;50.906;7.248;2024-03-02T14:26:27;14.40;99.90
41664;DHT22;27353;50.906;7.248;2024-03-02T14:28:54;14.30;99.90
41664;DHT22;27353;50.906;7.248;2024-03-02T14:31:19;14.40;99.90
41664;DHT22;27353;50.906;7.248;2024-03-02T14:33:46;14.30;99.90
41664;DHT22;27353;50.906;7.248;2024-03-02T14:36:11;14.20;99.90
41664;DHT22;27353;50.906;7.248;2024-03-02T14:38:38;14.20;99.90
41664;DHT22;27353;50.906;7.248;2024-03-02T14:41:04;14.10;99.90
41664;DHT22;27353;50.906;7.248;2024-03-02T14:43:30;14.00;99.90
41664;DHT22;27353;50.906;7.248;2024-03-02T14:45:56;13.90;99.90
41664;DHT22;27353;50.906;7.248;2024-03-02T14:48:22;13.90;99.90
41664;DHT22;27353;50.906;7.248;2024-03-02T14:50:48;13.70;99.90
41664;DHT22;27353;50.906;7.248;2024-03-02T14:53:13;13.60;99.90
41664;DHT22;27353;50.906;7.248;2024-03-02T14:55:39;13.50;99.90
41664;DHT22;27353;50.906;7.248;2024-03-02T14:58:05;13.50;99.90
41664;DHT22;27353;50.906;7.248;2024-03-02T15:00:30;13.60;99.90
41664;DHT22;27353;50.906;7.248;2024-03-02T15:02:56;13.60;99.90
41664;DHT22;27353;50.906;7.248;2024-03-02T15:05:21;13.70;99.90
41664;DHT22;27353;50.906;7.248;2024-03-02T15:07:47;13.70;99.90
41664;DHT22;27353;50.906;7.248;2024-03-02T15:10:13;13.60;99.90
41664;DHT22;27353;50.906;7.248;2024-03-02T15:12:38;13.80;99.90
41664;DHT22;27353;50.906;7.248;2024-03-02T15:15:04;13.90;99.90
41664;DHT22;27353;50.906;7.248;2024-03-02T15:17:30;13.90;99.90
41664;DHT22;27353;50.906;7.248;2024-03-02T15:19:56;13.80;99.90
41664;DHT22;27353;50.906;7.248;2024-03-02T15:22:21;13.80;99.90
41664;DHT22;27353;50.906;7.248;2024-03-02T15:24:47;13.70;99.90
41664;DHT22;27353;50.906;7.248;2024-03-02T15:27:13;13.70;99.90
41664;DHT22;27353;50.906;7.248;2024-03-02T15:29:39;13.70;99.90
41664;DHT22;27353;50.906;7.248;2024-03-02T15:32:05;13.80;99.90
41664;DHT22;27353;50.906;7.248;2024-03-02T15:34:32;13.70;99.90
41664;DHT22;27353;50.906;7.248;2024-03-02T15:36:58;13.80;99.90
41664;DHT22;27353;50.906;7.248;2024-03-02T15:39:24;13.90;99.90
41664;DHT22;27353;50.906;7.248;2024-03-02T15:41:49;13.90;99.90
41664;DHT22;27353;50.906;7.248;2024-03-02T15:44:15;13.90;99.90
41664;DHT22;27353;50.906;7.248;2024-03-02T15:46:41;13.90;99.90
41664;DHT22;27353;50.906;7.248;2024-03-02T15:49:07;13.80;99.90